sensor_id;sensor_type;location;lat;lon;timestamp;P1;durP1;ratioP1;P2;durP2;ratioP2
22160;SDS011;49035;48.812;11.762;2024-03-25T00:02:12;2.37;;;2.13;;
22160;SDS011;49035;48.812;11.762;2024-03-25T00:04:38;3.57;;;2.10;;
22160;SDS011;49035;48.812;11.762;2024-03-25T00:07:04;5.23;;;2.20;;
22160;SDS011;49035;48.812;11.762;2024-03-25T00:09:30;1.93;;;1.60;;
22160;SDS011;49035;48.812;11.762;2024-03-25T00:11:55;4.73;;;2.10;;
22160;SDS011;49035;48.812;11.762;2024-03-25T00:14:21;5.80;;;1.87;;
22160;SDS011;49035;48.812;11.762;2024-03-25T00:16:47;5.70;;;1.87;;
22160;SDS011;49035;48.812;11.762;2024-03-25T00:19:12;2.33;;;1.83;;
22160;SDS011;49035;48.812;11.762;2024-03-25T00:21:38;2.13;;;1.87;;
22160;SDS011;49035;48.812;11.762;2024-03-25T00:24:04;3.40;;;2.13;;
22160;SDS011;49035;48.812;11.762;2024-03-25T00:26:29;4.13;;;2.17;;
22160;SDS011;49035;48.812;11.762;2024-03-25T00:28:55;2.60;;;1.60;;
22160;SDS011;49035;48.812;11.762;2024-03-25T00:31:20;3.73;;;2.10;;
22160;SDS011;49035;48.812;11.762;2024-03-25T00:33:46;3.40;;;2.37;;
22160;SDS011;49035;48.812;11.762;2024-03-25T00:36:12;3.73;;;2.03;;
22160;SDS011;49035;48.812;11.762;2024-03-25T00:38:38;3.80;;;2.10;;
22160;SDS011;49035;48.812;11.762;2024-03-25T00:41:04;8.97;;;2.20;;
22160;SDS011;49035;48.812;11.762;2024-03-25T00:43:29;3.33;;;1.77;;
22160;SDS011;49035;48.812;11.762;2024-03-25T00:45:55;5.97;;;1.70;;
22160;SDS011;49035;48.812;11.762;2024-03-25T00:48:21;4.67;;;2.00;;
22160;SDS011;49035;48.812;11.762;2024-03-25T00:50:47;2.87;;;2.27;;
22160;SDS011;49035;48.812;11.762;2024-03-25T00:53:13;5.80;;;2.17;;
22160;SDS011;49035;48.812;11.762;2024-03-25T00:55:39;3.83;;;2.30;;
22160;SDS011;49035;48.812;11.762;2024-03-25T00:58:05;6.27;;;2.70;;
22160;SDS011;49035;48.812;11.762;2024-03-25T01:00:31;4.30;;;2.27;;
22160;SDS011;49035;48.812;11.762;2024-03-25T01:02:56;7.53;;;2.27;;
22160;SDS011;49035;48.812;11.762;2024-03-25T01:05:22;4.50;;;2.10;;
22160;SDS011;49035;48.812;11.762;2024-03-25T01:07:48;3.67;;;1.90;;
22160;SDS011;49035;48.812;11.762;2024-03-25T01:10:14;5.20;;;2.47;;
22160;SDS011;49035;48.812;11.762;2024-03-25T01:12:41;4.97;;;2.47;;
22160;SDS011;49035;48.812;11.762;2024-03-25T01:15:07;3.20;;;2.23;;
22160;SDS011;49035;48.812;11.762;2024-03-25T01:17:35;3.53;;;2.50;;
22160;SDS011;49035;48.812;11.762;2024-03-25T01:20:01;2.97;;;2.30;;
22160;SDS011;49035;48.812;11.762;2024-03-25T01:22:27;4.70;;;2.27;;
22160;SDS011;49035;48.812;11.762;2024-03-25T01:24:52;4.20;;;2.77;;
22160;SDS011;49035;48.812;11.762;2024-03-25T01:27:18;7.13;;;2.40;;
22160;SDS011;49035;48.812;11.762;2024-03-25T01:29:44;3.30;;;2.20;;
22160;SDS011;49035;48.812;11.762;2024-03-25T01:32:10;2.90;;;2.60;;
22160;SDS011;49035;48.812;11.762;2024-03-25T01:34:35;3.00;;;2.43;;
22160;SDS011;49035;48.812;11.762;2024-03-25T01:37:01;2.47;;;2.27;;
22160;SDS011;49035;48.812;11.762;2024-03-25T01:39:26;3.67;;;2.20;;
22160;SDS011;49035;48.812;11.762;2024-03-25T01:41:52;3.23;;;2.67;;
22160;SDS011;49035;48.812;11.762;2024-03-25T01:44:18;4.20;;;2.60;;
22160;SDS011;49035;48.812;11.762;2024-03-25T01:46:43;6.37;;;2.60;;
22160;SDS011;49035;48.812;11.762;2024-03-25T01:49:09;5.90;;;2.33;;
22160;SDS011;49035;48.812;11.762;2024-03-25T01:51:36;5.87;;;3.17;;
22160;SDS011;49035;48.812;11.762;2024-03-25T01:54:02;5.27;;;2.33;;
22160;SDS011;49035;48.812;11.762;2024-03-25T01:56:30;5.70;;;2.47;;
22160;SDS011;49035;48.812;11.762;2024-03-25T01:58:58;7.20;;;2.47;;
22160;SDS011;49035;48.812;11.762;2024-03-25T02:01:25;4.70;;;2.90;;
22160;SDS011;49035;48.812;11.762;2024-03-25T02:03:52;3.17;;;2.43;;
22160;SDS011;49035;48.812;11.762;2024-03-25T02:06:19;3.43;;;2.50;;
22160;SDS011;49035;48.812;11.762;2024-03-25T02:08:46;3.87;;;2.50;;
22160;SDS011;49035;48.812;11.762;2024-03-25T02:11:16;4.83;;;2.43;;
22160;SDS011;49035;48.812;11.762;2024-03-25T02:13:43;3.43;;;2.30;;
22160;SDS011;49035;48.812;11.762;2024-03-25T02:16:09;4.70;;;2.53;;
22160;SDS011;49035;48.812;11.762;2024-03-25T02:18:34;4.63;;;2.83;;
22160;SDS011;49035;48.812;11.762;2024-03-25T02:21:00;2.83;;;2.13;;
22160;SDS011;49035;48.812;11.762;2024-03-25T02:23:26;7.43;;;2.50;;
22160;SDS011;49035;48.812;11.762;2024-03-25T02:25:52;5.70;;;2.83;;
22160;SDS011;49035;48.812;11.762;2024-03-25T02:28:18;6.17;;;2.57;;
22160;SDS011;49035;48.812;11.762;2024-03-25T02:30:47;5.23;;;2.70;;
22160;SDS011;49035;48.812;11.762;2024-03-25T02:33:13;6.27;;;2.90;;
22160;SDS011;49035;48.812;11.762;2024-03-25T02:35:40;4.63;;;2.50;;
22160;SDS011;49035;48.812;11.762;2024-03-25T02:38:07;5.10;;;2.50;;
22160;SDS011;49035;48.812;11.762;2024-03-25T02:40:34;4.60;;;2.57;;
22160;SDS011;49035;48.812;11.762;2024-03-25T02:43:03;5.37;;;2.80;;
22160;SDS011;49035;48.812;11.762;2024-03-25T02:45:31;8.00;;;3.10;;
22160;SDS011;49035;48.812;11.762;2024-03-25T02:47:57;6.10;;;3.20;;
22160;SDS011;49035;48.812;11.762;2024-03-25T02:50:22;5.50;;;3.03;;
22160;SDS011;49035;48.812;11.762;2024-03-25T02:52:54;6.07;;;2.83;;
22160;SDS011;49035;48.812;11.762;2024-03-25T02:55:19;5.50;;;2.80;;
22160;SDS011;49035;48.812;11.762;2024-03-25T02:57:45;7.10;;;2.83;;
22160;SDS011;49035;48.812;11.762;2024-03-25T03:00:11;6.73;;;2.70;;
22160;SDS011;49035;48.812;11.762;2024-03-25T03:02:37;3.60;;;2.40;;
22160;SDS011;49035;48.812;11.762;2024-03-25T03:05:04;4.53;;;2.30;;
22160;SDS011;49035;48.812;11.762;2024-03-25T03:07:30;4.63;;;2.40;;
22160;SDS011;49035;48.812;11.762;2024-03-25T03:09:55;3.50;;;2.30;;
22160;SDS011;49035;48.812;11.762;2024-03-25T03:12:21;7.00;;;2.43;;
22160;SDS011;49035;48.812;11.762;2024-03-25T03:14:47;4.87;;;2.60;;
22160;SDS011;49035;48.812;11.762;2024-03-25T03:17:12;3.87;;;2.23;;
22160;SDS011;49035;48.812;11.762;2024-03-25T03:19:38;4.07;;;1.90;;
22160;SDS011;49035;48.812;11.762;2024-03-25T03:22:03;4.37;;;2.20;;
22160;SDS011;49035;48.812;11.762;2024-03-25T03:24:29;4.83;;;2.40;;
22160;SDS011;49035;48.812;11.762;2024-03-25T03:26:55;5.90;;;2.70;;
22160;SDS011;49035;48.812;11.762;2024-03-25T03:29:20;6.57;;;2.37;;
22160;SDS011;49035;48.812;11.762;2024-03-25T03:31:46;5.93;;;2.30;;
22160;SDS011;49035;48.812;11.762;2024-03-25T03:34:14;4.33;;;2.60;;
22160;SDS011;49035;48.812;11.762;2024-03-25T03:36:40;4.20;;;2.37;;
22160;SDS011;49035;48.812;11.762;2024-03-25T03:39:06;3.93;;;2.17;;
22160;SDS011;49035;48.812;11.762;2024-03-25T03:41:34;5.27;;;2.70;;
22160;SDS011;49035;48.812;11.762;2024-03-25T03:44:00;6.47;;;2.40;;
22160;SDS011;49035;48.812;11.762;2024-03-25T03:46:26;3.27;;;2.07;;
22160;SDS011;49035;48.812;11.762;2024-03-25T03:48:52;6.43;;;2.67;;
22160;SDS011;49035;48.812;11.762;2024-03-25T03:51:17;3.33;;;2.23;;
22160;SDS011;49035;48.812;11.762;2024-03-25T03:53:43;6.20;;;2.50;;
22160;SDS011;49035;48.812;11.762;2024-03-25T03:56:09;4.77;;;2.30;;
22160;SDS011;49035;48.812;11.762;2024-03-25T03:58:35;6.80;;;2.53;;
22160;SDS011;49035;48.812;11.762;2024-03-25T04:01:00;3.90;;;2.23;;
22160;SDS011;49035;48.812;11.762;2024-03-25T04:03:26;3.93;;;2.73;;
22160;SDS011;49035;48.812;11.762;2024-03-25T04:05:52;3.37;;;2.30;;
22160;SDS011;49035;48.812;11.762;2024-03-25T04:08:18;7.07;;;2.40;;
22160;SDS011;49035;48.812;11.762;2024-03-25T04:10:44;3.70;;;2.40;;
22160;SDS011;49035;48.812;11.762;2024-03-25T04:13:10;4.97;;;2.67;;
22160;SDS011;49035;48.812;11.762;2024-03-25T04:15:39;9.23;;;2.70;;
22160;SDS011;49035;48.812;11.762;2024-03-25T04:18:07;4.90;;;2.27;;
22160;SDS011;49035;48.812;11.762;2024-03-25T04:20:37;3.10;;;2.13;;
22160;SDS011;49035;48.812;11.762;2024-03-25T04:23:03;5.23;;;2.40;;
22160;SDS011;49035;48.812;11.762;2024-03-25T04:25:30;3.80;;;2.50;;
22160;SDS011;49035;48.812;11.762;2024-03-25T04:27:56;5.47;;;2.67;;
22160;SDS011;49035;48.812;11.762;2024-03-25T04:30:21;4.77;;;2.77;;
22160;SDS011;49035;48.812;11.762;2024-03-25T04:32:47;3.73;;;2.50;;
22160;SDS011;49035;48.812;11.762;2024-03-25T04:35:13;5.93;;;2.47;;
22160;SDS011;49035;48.812;11.762;2024-03-25T04:37:38;3.73;;;2.70;;
22160;SDS011;49035;48.812;11.762;2024-03-25T04:40:04;3.87;;;2.67;;
22160;SDS011;49035;48.812;11.762;2024-03-25T04:42:30;3.40;;;2.57;;
22160;SDS011;49035;48.812;11.762;2024-03-25T04:44:56;4.50;;;2.67;;
22160;SDS011;49035;48.812;11.762;2024-03-25T04:47:22;4.00;;;2.50;;
22160;SDS011;49035;48.812;11.762;2024-03-25T04:49:48;10.87;;;2.80;;
22160;SDS011;49035;48.812;11.762;2024-03-25T04:52:13;5.23;;;2.80;;
22160;SDS011;49035;48.812;11.762;2024-03-25T04:54:43;3.50;;;2.87;;
22160;SDS011;49035;48.812;11.762;2024-03-25T04:57:09;7.43;;;3.23;;
22160;SDS011;49035;48.812;11.762;2024-03-25T04:59:38;5.60;;;3.00;;
22160;SDS011;49035;48.812;11.762;2024-03-25T05:02:03;4.37;;;3.00;;
22160;SDS011;49035;48.812;11.762;2024-03-25T05:04:34;7.53;;;3.27;;
22160;SDS011;49035;48.812;11.762;2024-03-25T05:07:00;7.63;;;3.27;;
22160;SDS011;49035;48.812;11.762;2024-03-25T05:09:28;7.37;;;3.70;;
22160;SDS011;49035;48.812;11.762;2024-03-25T05:11:53;4.60;;;2.90;;
22160;SDS011;49035;48.812;11.762;2024-03-25T05:14:19;8.17;;;3.33;;
22160;SDS011;49035;48.812;11.762;2024-03-25T05:16:45;6.30;;;3.40;;
22160;SDS011;49035;48.812;11.762;2024-03-25T05:19:10;6.07;;;3.50;;
22160;SDS011;49035;48.812;11.762;2024-03-25T05:21:36;6.03;;;3.13;;
22160;SDS011;49035;48.812;11.762;2024-03-25T05:24:02;4.73;;;3.00;;
22160;SDS011;49035;48.812;11.762;2024-03-25T05:26:27;7.57;;;2.70;;
22160;SDS011;49035;48.812;11.762;2024-03-25T05:28:54;8.03;;;3.13;;
22160;SDS011;49035;48.812;11.762;2024-03-25T05:31:20;4.13;;;2.90;;
22160;SDS011;49035;48.812;11.762;2024-03-25T05:33:46;5.93;;;3.43;;
22160;SDS011;49035;48.812;11.762;2024-03-25T05:36:13;5.70;;;2.80;;
22160;SDS011;49035;48.812;11.762;2024-03-25T05:38:39;5.80;;;3.10;;
22160;SDS011;49035;48.812;11.762;2024-03-25T05:41:05;7.23;;;2.97;;
22160;SDS011;49035;48.812;11.762;2024-03-25T05:43:33;4.87;;;2.80;;
22160;SDS011;49035;48.812;11.762;2024-03-25T05:46:02;5.90;;;2.97;;
22160;SDS011;49035;48.812;11.762;2024-03-25T05:48:28;7.93;;;3.30;;
22160;SDS011;49035;48.812;11.762;2024-03-25T05:51:01;4.13;;;2.90;;
22160;SDS011;49035;48.812;11.762;2024-03-25T05:53:28;6.97;;;2.73;;
22160;SDS011;49035;48.812;11.762;2024-03-25T05:55:56;5.63;;;2.90;;
22160;SDS011;49035;48.812;11.762;2024-03-25T05:58:25;5.67;;;3.13;;
22160;SDS011;49035;48.812;11.762;2024-03-25T06:00:51;4.80;;;3.53;;
22160;SDS011;49035;48.812;11.762;2024-03-25T06:03:20;8.27;;;3.13;;
22160;SDS011;49035;48.812;11.762;2024-03-25T06:05:47;5.50;;;2.83;;
22160;SDS011;49035;48.812;11.762;2024-03-25T06:08:13;6.73;;;2.87;;
22160;SDS011;49035;48.812;11.762;2024-03-25T06:10:51;5.57;;;2.87;;
22160;SDS011;49035;48.812;11.762;2024-03-25T06:13:17;5.23;;;2.63;;
22160;SDS011;49035;48.812;11.762;2024-03-25T06:15:43;6.33;;;3.07;;
22160;SDS011;49035;48.812;11.762;2024-03-25T06:18:08;4.97;;;2.80;;
22160;SDS011;49035;48.812;11.762;2024-03-25T06:20:34;7.77;;;3.40;;
22160;SDS011;49035;48.812;11.762;2024-03-25T06:23:03;4.67;;;2.83;;
22160;SDS011;49035;48.812;11.762;2024-03-25T06:28:22;5.03;;;2.93;;
22160;SDS011;49035;48.812;11.762;2024-03-25T06:30:58;8.60;;;4.27;;
22160;SDS011;49035;48.812;11.762;2024-03-25T06:33:42;5.43;;;2.90;;
22160;SDS011;49035;48.812;11.762;2024-03-25T06:36:27;5.43;;;2.73;;
22160;SDS011;49035;48.812;11.762;2024-03-25T06:38:52;3.60;;;2.90;;
22160;SDS011;49035;48.812;11.762;2024-03-25T06:41:18;4.20;;;2.67;;
22160;SDS011;49035;48.812;11.762;2024-03-25T06:43:52;6.97;;;2.53;;
22160;SDS011;49035;48.812;11.762;2024-03-25T06:46:23;7.93;;;3.10;;
22160;SDS011;49035;48.812;11.762;2024-03-25T06:48:54;5.53;;;2.27;;
22160;SDS011;49035;48.812;11.762;2024-03-25T06:51:20;6.43;;;3.10;;
22160;SDS011;49035;48.812;11.762;2024-03-25T06:53:46;3.90;;;2.80;;
22160;SDS011;49035;48.812;11.762;2024-03-25T06:56:13;5.03;;;2.77;;
22160;SDS011;49035;48.812;11.762;2024-03-25T06:58:44;5.00;;;2.47;;
22160;SDS011;49035;48.812;11.762;2024-03-25T07:01:30;7.17;;;2.67;;
22160;SDS011;49035;48.812;11.762;2024-03-25T07:04:05;4.77;;;2.70;;
22160;SDS011;49035;48.812;11.762;2024-03-25T07:06:41;5.23;;;2.37;;
22160;SDS011;49035;48.812;11.762;2024-03-25T07:09:10;5.20;;;2.47;;
22160;SDS011;49035;48.812;11.762;2024-03-25T07:11:39;5.37;;;2.93;;
22160;SDS011;49035;48.812;11.762;2024-03-25T07:14:12;6.23;;;2.40;;
22160;SDS011;49035;48.812;11.762;2024-03-25T07:16:47;3.13;;;2.23;;
22160;SDS011;49035;48.812;11.762;2024-03-25T07:19:19;4.50;;;2.60;;
22160;SDS011;49035;48.812;11.762;2024-03-25T07:21:53;5.40;;;2.63;;
22160;SDS011;49035;48.812;11.762;2024-03-25T07:24:34;4.13;;;2.30;;
22160;SDS011;49035;48.812;11.762;2024-03-25T07:27:00;6.50;;;2.87;;
22160;SDS011;49035;48.812;11.762;2024-03-25T07:29:30;5.63;;;2.60;;
22160;SDS011;49035;48.812;11.762;2024-03-25T07:32:01;5.17;;;2.70;;
22160;SDS011;49035;48.812;11.762;2024-03-25T07:34:35;4.50;;;2.67;;
22160;SDS011;49035;48.812;11.762;2024-03-25T07:37:02;5.70;;;2.73;;
22160;SDS011;49035;48.812;11.762;2024-03-25T07:39:28;6.17;;;2.70;;
22160;SDS011;49035;48.812;11.762;2024-03-25T07:41:54;6.22;;;2.83;;
22160;SDS011;49035;48.812;11.762;2024-03-25T07:44:24;3.65;;;2.83;;
22160;SDS011;49035;48.812;11.762;2024-03-25T07:46:52;4.50;;;2.78;;
22160;SDS011;49035;48.812;11.762;2024-03-25T07:49:20;4.68;;;3.00;;
22160;SDS011;49035;48.812;11.762;2024-03-25T07:51:46;5.90;;;2.95;;
22160;SDS011;49035;48.812;11.762;2024-03-25T07:54:12;5.00;;;2.72;;
22160;SDS011;49035;48.812;11.762;2024-03-25T07:56:41;3.35;;;2.55;;
22160;SDS011;49035;48.812;11.762;2024-03-25T07:59:07;9.38;;;3.10;;
22160;SDS011;49035;48.812;11.762;2024-03-25T08:01:33;4.22;;;2.50;;
22160;SDS011;49035;48.812;11.762;2024-03-25T08:03:58;3.42;;;2.72;;
22160;SDS011;49035;48.812;11.762;2024-03-25T08:06:24;6.47;;;2.78;;
22160;SDS011;49035;48.812;11.762;2024-03-25T08:08:50;4.95;;;2.90;;
22160;SDS011;49035;48.812;11.762;2024-03-25T08:11:15;4.95;;;2.83;;
22160;SDS011;49035;48.812;11.762;2024-03-25T08:13:41;7.70;;;2.95;;
22160;SDS011;49035;48.812;11.762;2024-03-25T08:16:06;5.65;;;3.10;;
22160;SDS011;49035;48.812;11.762;2024-03-25T08:18:32;5.15;;;3.03;;
22160;SDS011;49035;48.812;11.762;2024-03-25T08:20:58;5.20;;;3.13;;
22160;SDS011;49035;48.812;11.762;2024-03-25T08:23:24;5.15;;;3.00;;
22160;SDS011;49035;48.812;11.762;2024-03-25T08:25:55;5.88;;;3.10;;
22160;SDS011;49035;48.812;11.762;2024-03-25T08:28:30;5.60;;;2.90;;
22160;SDS011;49035;48.812;11.762;2024-03-25T08:30:58;6.60;;;3.28;;
22160;SDS011;49035;48.812;11.762;2024-03-25T08:33:24;6.53;;;3.10;;
22160;SDS011;49035;48.812;11.762;2024-03-25T08:35:49;7.82;;;3.15;;
22160;SDS011;49035;48.812;11.762;2024-03-25T08:38:23;6.53;;;4.50;;
22160;SDS011;49035;48.812;11.762;2024-03-25T08:40:51;7.45;;;4.00;;
22160;SDS011;49035;48.812;11.762;2024-03-25T08:43:17;6.00;;;3.38;;
22160;SDS011;49035;48.812;11.762;2024-03-25T08:45:46;4.30;;;3.28;;
22160;SDS011;49035;48.812;11.762;2024-03-25T08:48:12;4.15;;;3.13;;
22160;SDS011;49035;48.812;11.762;2024-03-25T08:50:38;7.00;;;3.60;;
22160;SDS011;49035;48.812;11.762;2024-03-25T08:53:04;7.18;;;3.10;;
22160;SDS011;49035;48.812;11.762;2024-03-25T08:55:30;6.20;;;3.33;;
22160;SDS011;49035;48.812;11.762;2024-03-25T08:58:04;6.65;;;4.00;;
22160;SDS011;49035;48.812;11.762;2024-03-25T09:00:30;6.43;;;3.60;;
22160;SDS011;49035;48.812;11.762;2024-03-25T09:02:58;5.22;;;4.18;;
22160;SDS011;49035;48.812;11.762;2024-03-25T09:05:26;5.72;;;3.78;;
22160;SDS011;49035;48.812;11.762;2024-03-25T09:07:52;5.95;;;3.55;;
22160;SDS011;49035;48.812;11.762;2024-03-25T09:10:18;7.10;;;3.50;;
22160;SDS011;49035;48.812;11.762;2024-03-25T09:13:02;6.57;;;3.53;;
22160;SDS011;49035;48.812;11.762;2024-03-25T09:15:29;5.05;;;3.22;;
22160;SDS011;49035;48.812;11.762;2024-03-25T09:17:54;4.53;;;3.00;;
22160;SDS011;49035;48.812;11.762;2024-03-25T09:20:20;4.13;;;3.10;;
22160;SDS011;49035;48.812;11.762;2024-03-25T09:22:46;8.60;;;3.33;;
22160;SDS011;49035;48.812;11.762;2024-03-25T09:25:15;4.85;;;3.30;;
22160;SDS011;49035;48.812;11.762;2024-03-25T09:27:45;4.18;;;2.92;;
22160;SDS011;49035;48.812;11.762;2024-03-25T09:30:11;6.78;;;3.10;;
22160;SDS011;49035;48.812;11.762;2024-03-25T09:32:38;5.15;;;3.10;;
22160;SDS011;49035;48.812;11.762;2024-03-25T09:35:08;4.40;;;3.05;;
22160;SDS011;49035;48.812;11.762;2024-03-25T09:37:34;4.90;;;3.13;;
22160;SDS011;49035;48.812;11.762;2024-03-25T09:40:00;6.53;;;3.60;;
22160;SDS011;49035;48.812;11.762;2024-03-25T09:42:41;6.20;;;3.72;;
22160;SDS011;49035;48.812;11.762;2024-03-25T09:45:12;7.90;;;3.40;;
22160;SDS011;49035;48.812;11.762;2024-03-25T09:47:41;4.45;;;2.95;;
22160;SDS011;49035;48.812;11.762;2024-03-25T09:50:12;4.82;;;2.90;;
22160;SDS011;49035;48.812;11.762;2024-03-25T09:52:44;4.32;;;3.30;;
22160;SDS011;49035;48.812;11.762;2024-03-25T09:55:13;6.25;;;3.20;;
22160;SDS011;49035;48.812;11.762;2024-03-25T09:57:50;6.70;;;3.17;;
22160;SDS011;49035;48.812;11.762;2024-03-25T10:00:32;6.30;;;3.33;;
22160;SDS011;49035;48.812;11.762;2024-03-25T10:03:11;4.35;;;3.22;;
22160;SDS011;49035;48.812;11.762;2024-03-25T10:05:38;7.38;;;3.30;;
22160;SDS011;49035;48.812;11.762;2024-03-25T10:08:04;3.00;;;2.60;;
22160;SDS011;49035;48.812;11.762;2024-03-25T10:10:30;5.22;;;3.42;;
22160;SDS011;49035;48.812;11.762;2024-03-25T10:12:58;7.45;;;3.50;;
22160;SDS011;49035;48.812;11.762;2024-03-25T10:15:25;4.90;;;3.35;;
22160;SDS011;49035;48.812;11.762;2024-03-25T10:17:52;3.13;;;2.75;;
22160;SDS011;49035;48.812;11.762;2024-03-25T10:20:17;4.22;;;2.97;;
22160;SDS011;49035;48.812;11.762;2024-03-25T10:22:43;5.25;;;3.00;;
22160;SDS011;49035;48.812;11.762;2024-03-25T10:25:29;6.57;;;3.13;;
22160;SDS011;49035;48.812;11.762;2024-03-25T10:27:56;6.43;;;3.03;;
22160;SDS011;49035;48.812;11.762;2024-03-25T10:30:22;7.60;;;3.13;;
22160;SDS011;49035;48.812;11.762;2024-03-25T10:32:58;4.97;;;3.15;;
22160;SDS011;49035;48.812;11.762;2024-03-25T10:35:27;4.60;;;3.00;;
22160;SDS011;49035;48.812;11.762;2024-03-25T10:38:03;6.35;;;3.00;;
22160;SDS011;49035;48.812;11.762;2024-03-25T10:40:31;3.80;;;2.67;;
22160;SDS011;49035;48.812;11.762;2024-03-25T10:43:06;3.63;;;2.92;;
22160;SDS011;49035;48.812;11.762;2024-03-25T10:45:46;4.57;;;2.78;;
22160;SDS011;49035;48.812;11.762;2024-03-25T10:50:45;4.80;;;3.05;;
22160;SDS011;49035;48.812;11.762;2024-03-25T10:53:11;3.63;;;2.70;;
22160;SDS011;49035;48.812;11.762;2024-03-25T10:55:39;5.05;;;3.00;;
22160;SDS011;49035;48.812;11.762;2024-03-25T10:58:08;4.82;;;2.90;;
22160;SDS011;49035;48.812;11.762;2024-03-25T11:00:34;4.35;;;2.67;;
22160;SDS011;49035;48.812;11.762;2024-03-25T11:03:01;5.57;;;2.42;;
22160;SDS011;49035;48.812;11.762;2024-03-25T11:05:27;4.78;;;3.10;;
22160;SDS011;49035;48.812;11.762;2024-03-25T11:07:54;4.15;;;2.85;;
22160;SDS011;49035;48.812;11.762;2024-03-25T11:10:28;3.38;;;2.78;;
22160;SDS011;49035;48.812;11.762;2024-03-25T11:12:57;5.55;;;2.72;;
22160;SDS011;49035;48.812;11.762;2024-03-25T11:15:22;5.85;;;3.17;;
22160;SDS011;49035;48.812;11.762;2024-03-25T11:18:00;6.68;;;3.10;;
22160;SDS011;49035;48.812;11.762;2024-03-25T11:20:26;5.13;;;2.75;;
22160;SDS011;49035;48.812;11.762;2024-03-25T11:22:53;4.28;;;2.67;;
22160;SDS011;49035;48.812;11.762;2024-03-25T11:25:22;6.45;;;3.40;;
22160;SDS011;49035;48.812;11.762;2024-03-25T11:27:47;5.03;;;3.22;;
22160;SDS011;49035;48.812;11.762;2024-03-25T11:30:14;4.78;;;3.50;;
22160;SDS011;49035;48.812;11.762;2024-03-25T11:32:46;5.25;;;2.95;;
22160;SDS011;49035;48.812;11.762;2024-03-25T11:35:18;5.38;;;3.83;;
22160;SDS011;49035;48.812;11.762;2024-03-25T11:37:47;8.98;;;3.80;;
22160;SDS011;49035;48.812;11.762;2024-03-25T11:40:15;4.28;;;3.47;;
22160;SDS011;49035;48.812;11.762;2024-03-25T11:42:41;6.10;;;3.83;;
22160;SDS011;49035;48.812;11.762;2024-03-25T11:45:17;4.88;;;3.70;;
22160;SDS011;49035;48.812;11.762;2024-03-25T11:47:45;6.65;;;3.28;;
22160;SDS011;49035;48.812;11.762;2024-03-25T11:50:15;6.75;;;3.45;;
22160;SDS011;49035;48.812;11.762;2024-03-25T11:52:42;5.50;;;3.33;;
22160;SDS011;49035;48.812;11.762;2024-03-25T11:55:08;6.80;;;3.35;;
22160;SDS011;49035;48.812;11.762;2024-03-25T11:57:35;4.97;;;3.70;;
22160;SDS011;49035;48.812;11.762;2024-03-25T12:00:01;4.95;;;3.60;;
22160;SDS011;49035;48.812;11.762;2024-03-25T12:02:44;3.45;;;3.10;;
22160;SDS011;49035;48.812;11.762;2024-03-25T12:05:11;3.83;;;2.80;;
22160;SDS011;49035;48.812;11.762;2024-03-25T12:07:37;6.88;;;3.50;;
22160;SDS011;49035;48.812;11.762;2024-03-25T12:10:05;6.82;;;3.05;;
22160;SDS011;49035;48.812;11.762;2024-03-25T12:12:50;6.32;;;3.50;;
22160;SDS011;49035;48.812;11.762;2024-03-25T12:15:16;5.57;;;3.72;;
22160;SDS011;49035;48.812;11.762;2024-03-25T12:17:42;5.95;;;3.50;;
22160;SDS011;49035;48.812;11.762;2024-03-25T12:20:08;5.32;;;3.53;;
22160;SDS011;49035;48.812;11.762;2024-03-25T12:22:35;3.47;;;2.88;;
22160;SDS011;49035;48.812;11.762;2024-03-25T12:25:02;4.30;;;3.17;;
22160;SDS011;49035;48.812;11.762;2024-03-25T12:27:31;3.67;;;2.65;;
22160;SDS011;49035;48.812;11.762;2024-03-25T12:30:01;5.90;;;2.88;;
22160;SDS011;49035;48.812;11.762;2024-03-25T12:32:48;4.40;;;2.40;;
22160;SDS011;49035;48.812;11.762;2024-03-25T12:35:15;3.00;;;1.90;;
22160;SDS011;49035;48.812;11.762;2024-03-25T12:37:42;2.40;;;2.20;;
22160;SDS011;49035;48.812;11.762;2024-03-25T12:40:12;5.65;;;2.22;;
22160;SDS011;49035;48.812;11.762;2024-03-25T12:42:52;6.00;;;2.70;;
22160;SDS011;49035;48.812;11.762;2024-03-25T12:45:18;2.95;;;2.53;;
22160;SDS011;49035;48.812;11.762;2024-03-25T12:47:48;3.78;;;2.58;;
22160;SDS011;49035;48.812;11.762;2024-03-25T12:50:14;3.95;;;2.70;;
22160;SDS011;49035;48.812;11.762;2024-03-25T12:52:40;3.35;;;2.67;;
22160;SDS011;49035;48.812;11.762;2024-03-25T12:55:05;4.13;;;2.95;;
22160;SDS011;49035;48.812;11.762;2024-03-25T12:57:31;4.25;;;2.70;;
22160;SDS011;49035;48.812;11.762;2024-03-25T12:59:56;3.50;;;2.70;;
22160;SDS011;49035;48.812;11.762;2024-03-25T13:02:22;7.45;;;3.28;;
22160;SDS011;49035;48.812;11.762;2024-03-25T13:04:48;3.58;;;2.83;;
22160;SDS011;49035;48.812;11.762;2024-03-25T13:07:13;5.18;;;3.05;;
22160;SDS011;49035;48.812;11.762;2024-03-25T13:09:39;3.08;;;2.75;;
22160;SDS011;49035;48.812;11.762;2024-03-25T13:12:04;4.38;;;2.53;;
22160;SDS011;49035;48.812;11.762;2024-03-25T13:14:30;4.03;;;2.55;;
22160;SDS011;49035;48.812;11.762;2024-03-25T13:16:56;3.92;;;2.70;;
22160;SDS011;49035;48.812;11.762;2024-03-25T13:19:21;4.38;;;2.58;;
22160;SDS011;49035;48.812;11.762;2024-03-25T13:21:47;3.88;;;2.45;;
22160;SDS011;49035;48.812;11.762;2024-03-25T13:24:13;3.63;;;2.70;;
22160;SDS011;49035;48.812;11.762;2024-03-25T13:26:39;4.95;;;2.58;;
22160;SDS011;49035;48.812;11.762;2024-03-25T13:29:04;2.40;;;2.10;;
22160;SDS011;49035;48.812;11.762;2024-03-25T13:31:32;3.42;;;1.98;;
22160;SDS011;49035;48.812;11.762;2024-03-25T13:33:58;3.85;;;2.20;;
22160;SDS011;49035;48.812;11.762;2024-03-25T13:36:23;2.88;;;2.20;;
22160;SDS011;49035;48.812;11.762;2024-03-25T13:38:49;4.20;;;2.40;;
22160;SDS011;49035;48.812;11.762;2024-03-25T13:41:15;4.32;;;2.05;;
22160;SDS011;49035;48.812;11.762;2024-03-25T13:43:46;3.60;;;1.90;;
22160;SDS011;49035;48.812;11.762;2024-03-25T13:46:12;2.85;;;1.83;;
22160;SDS011;49035;48.812;11.762;2024-03-25T13:48:38;3.38;;;2.25;;
22160;SDS011;49035;48.812;11.762;2024-03-25T13:51:04;3.65;;;1.90;;
22160;SDS011;49035;48.812;11.762;2024-03-25T13:53:29;4.10;;;2.20;;
22160;SDS011;49035;48.812;11.762;2024-03-25T13:55:57;2.70;;;2.22;;
22160;SDS011;49035;48.812;11.762;2024-03-25T13:58:24;2.85;;;2.20;;
22160;SDS011;49035;48.812;11.762;2024-03-25T14:00:50;3.28;;;1.70;;
22160;SDS011;49035;48.812;11.762;2024-03-25T14:03:16;2.88;;;1.65;;
22160;SDS011;49035;48.812;11.762;2024-03-25T14:05:42;3.40;;;1.92;;
22160;SDS011;49035;48.812;11.762;2024-03-25T14:08:08;4.57;;;1.80;;
22160;SDS011;49035;48.812;11.762;2024-03-25T14:10:34;4.07;;;1.27;;
22160;SDS011;49035;48.812;11.762;2024-03-25T14:13:00;4.57;;;1.60;;
22160;SDS011;49035;48.812;11.762;2024-03-25T14:15:26;1.90;;;1.70;;
22160;SDS011;49035;48.812;11.762;2024-03-25T14:17:51;1.65;;;1.38;;
22160;SDS011;49035;48.812;11.762;2024-03-25T14:20:17;4.63;;;1.60;;
22160;SDS011;49035;48.812;11.762;2024-03-25T14:22:42;1.70;;;1.40;;
22160;SDS011;49035;48.812;11.762;2024-03-25T14:25:08;6.70;;;3.53;;
22160;SDS011;49035;48.812;11.762;2024-03-25T14:27:34;4.00;;;1.92;;
22160;SDS011;49035;48.812;11.762;2024-03-25T14:29:59;3.67;;;2.05;;
22160;SDS011;49035;48.812;11.762;2024-03-25T14:32:26;3.08;;;1.80;;
22160;SDS011;49035;48.812;11.762;2024-03-25T14:34:51;5.20;;;2.20;;
22160;SDS011;49035;48.812;11.762;2024-03-25T14:37:20;2.20;;;2.00;;
22160;SDS011;49035;48.812;11.762;2024-03-25T14:39:46;2.42;;;1.60;;
22160;SDS011;49035;48.812;11.762;2024-03-25T14:42:14;4.47;;;2.20;;